createdAt,value
2023-03-21T00:05:59.544Z,10.85
2023-03-21T00:16:11.880Z,10.82
2023-03-21T00:26:22.753Z,10.80
2023-03-21T00:36:27.007Z,10.77
2023-03-21T00:46:43.656Z,10.76
2023-03-21T00:56:48.480Z,10.67
2023-03-21T01:06:52.898Z,10.62
2023-03-21T01:16:56.151Z,10.69
2023-03-21T01:27:00.684Z,10.66
2023-03-21T01:37:03.931Z,10.57
2023-03-21T01:47:13.263Z,10.61
2023-03-21T01:58:02.402Z,10.71
2023-03-21T02:08:14.846Z,10.66
2023-03-21T02:18:26.645Z,10.58
2023-03-21T02:28:34.407Z,10.60
2023-03-21T02:38:47.656Z,10.59
2023-03-21T02:48:55.758Z,10.55
2023-03-21T02:59:01.590Z,10.58
2023-03-21T03:09:25.953Z,10.49
2023-03-21T03:19:49.558Z,10.45
2023-03-21T03:29:56.330Z,10.45
2023-03-21T03:40:10.070Z,10.44
2023-03-21T03:50:23.160Z,10.46
2023-03-21T04:10:49.760Z,10.45
2023-03-21T04:20:55.385Z,10.42
2023-03-21T04:31:06.642Z,10.42
2023-03-21T04:41:22.127Z,10.37
2023-03-21T04:51:26.315Z,10.42
2023-03-21T05:01:31.644Z,10.41
2023-03-21T05:11:37.842Z,10.35
2023-03-21T05:21:45.259Z,10.33
2023-03-21T05:31:54.476Z,10.36
2023-03-21T05:41:59.202Z,10.41
2023-03-21T05:52:03.754Z,10.37
2023-03-21T06:02:08.268Z,10.41
2023-03-21T06:12:13.309Z,10.46
2023-03-21T06:22:42.711Z,10.56
2023-03-21T06:32:47.722Z,10.60
2023-03-21T06:42:56.022Z,10.66
2023-03-21T06:53:00.132Z,10.73
2023-03-21T07:03:08.214Z,10.82
2023-03-21T07:13:11.621Z,10.80
2023-03-21T07:23:23.750Z,10.78
2023-03-21T07:33:28.096Z,10.65
2023-03-21T07:43:39.005Z,10.40
2023-03-21T07:53:48.869Z,10.21
2023-03-21T08:03:53.699Z,10.01
2023-03-21T08:13:57.041Z,9.83
2023-03-21T08:24:01.576Z,9.86
2023-03-21T08:34:04.780Z,9.81
2023-03-21T08:44:09.313Z,9.66
2023-03-21T08:54:20.657Z,9.78
2023-03-21T09:04:26.254Z,9.68
2023-03-21T09:14:29.702Z,9.79
2023-03-21T09:24:37.374Z,9.72
2023-03-21T09:34:42.784Z,9.94
2023-03-21T09:45:05.695Z,9.95
2023-03-21T09:55:20.840Z,9.73
2023-03-21T10:05:28.596Z,9.76
2023-03-21T10:15:33.762Z,9.68
2023-03-21T10:25:42.587Z,9.83
2023-03-21T10:35:50.764Z,9.82
2023-03-21T10:45:56.006Z,9.71
2023-03-21T10:56:02.504Z,9.67
2023-03-21T11:06:10.226Z,9.82
2023-03-21T11:16:23.746Z,9.67
2023-03-21T11:26:32.397Z,9.87
2023-03-21T11:36:39.894Z,9.89
2023-03-21T11:46:45.039Z,9.85
2023-03-21T11:56:50.698Z,9.86
2023-03-21T12:07:05.938Z,9.87
2023-03-21T12:17:39.315Z,9.89
2023-03-21T12:27:52.349Z,10.05
2023-03-21T12:38:08.286Z,9.94
2023-03-21T12:48:22.423Z,10.20
2023-03-21T12:58:29.216Z,10.24
2023-03-21T13:08:39.831Z,10.22
2023-03-21T13:18:53.660Z,10.28
2023-03-21T13:29:00.575Z,10.42
2023-03-21T13:39:07.080Z,10.63
2023-03-21T13:49:26.753Z,10.65
2023-03-21T13:59:43.540Z,10.68
2023-03-21T14:09:52.019Z,10.73
2023-03-21T14:19:58.232Z,10.94
2023-03-21T14:30:04.599Z,11.03
2023-03-21T14:40:18.516Z,11.09
2023-03-21T14:50:25.559Z,11.15
2023-03-21T15:00:30.983Z,11.33
2023-03-21T15:10:36.147Z,11.59
2023-03-21T15:20:40.773Z,11.70
2023-03-21T15:30:51.428Z,11.70
2023-03-21T15:41:15.525Z,11.84
2023-03-21T15:51:24.287Z,11.93
2023-03-21T16:01:27.751Z,12.02
2023-03-21T16:11:39.977Z,12.03
2023-03-21T16:21:43.181Z,11.95
2023-03-21T16:31:49.990Z,12.04
2023-03-21T16:41:54.463Z,12.07
2023-03-21T16:51:59.228Z,11.98
2023-03-21T17:02:03.713Z,12.00
2023-03-21T17:12:14.968Z,11.92
2023-03-21T17:22:18.483Z,11.86
2023-03-21T17:32:23.334Z,11.82
2023-03-21T17:42:26.833Z,11.79
2023-03-21T17:52:31.937Z,11.74
2023-03-21T18:02:35.391Z,11.74
2023-03-21T18:12:41.107Z,11.71
2023-03-21T18:22:44.654Z,11.70
2023-03-21T18:32:52.694Z,11.65
2023-03-21T18:43:49.922Z,11.63
2023-03-21T19:03:53.190Z,11.50
2023-03-21T19:14:08.937Z,11.39
2023-03-21T19:24:28.938Z,11.34
2023-03-21T19:34:33.721Z,11.31
2023-03-21T19:44:36.969Z,11.31
2023-03-21T19:54:41.274Z,11.25
2023-03-21T20:04:44.375Z,11.16
2023-03-21T20:14:49.233Z,11.22
2023-03-21T20:24:52.701Z,11.28
2023-03-21T20:35:10.141Z,11.31
2023-03-21T20:45:20.404Z,11.31
2023-03-21T20:55:25.023Z,11.29
2023-03-21T21:05:34.547Z,11.38
2023-03-21T21:15:39.631Z,11.43
2023-03-21T21:25:42.584Z,11.28
2023-03-21T21:35:49.243Z,11.14
2023-03-21T21:45:53.745Z,11.08
2023-03-21T21:55:58.068Z,10.97
2023-03-21T22:06:03.202Z,10.93
2023-03-21T22:16:08.689Z,10.91
2023-03-21T22:26:12.340Z,10.89
2023-03-21T22:36:16.896Z,10.86
2023-03-21T22:46:19.948Z,10.84
2023-03-21T22:56:24.350Z,10.86
2023-03-21T23:06:30.073Z,10.77
2023-03-21T23:16:35.063Z,10.71
2023-03-21T23:26:41.133Z,10.70
2023-03-21T23:36:45.638Z,10.70
2023-03-21T23:46:48.789Z,10.72
2023-03-21T23:56:53.004Z,10.71
